• Join FlightAware (Why Join?)
  • Login
  • US Flag 
12:00AM EDT


 

Airport Tracker/Info


-or-


 

Live Flight TrackerFlight Track Log ✈ FLG3777 ✈ 06-May-2013 ✈ KORD - KCVG

Flight Track Log - Related Links

Times and Time Zones

All times are in EDT time to prevent confusion due to time zone crossing. See the FLG3777 flight status page for this flight to view local times or setup timezone preferences in your user account.

Time Position Orientation Groundspeed Altitude Reporting Facility
EDT Latitude Longitude Course Direction KTS MPH feet Rate Location/Type
01:57PM 41.9667 -87.8667 171° South 174 200 2,300  Level Chicago TRACON
01:58PM 41.9333 -87.8167 132° Southeast 222 255 4,200 1,500 Climbing Chicago TRACON
02:00PM 41.6333 -87.5012 153° Southeast  Level Estimated
02:00PM 41.8156 -87.8048 154° Southeast  Level FlightAware Approximate
02:01PM 41.5459 -87.4005 159° South  Level Estimated
02:01PM 41.6914 -87.7867 159° South 280 322 8,700  Level Chicago Center
02:02PM 41.4585 -87.3001 171° South  Level Estimated
02:03PM 41.3857 -87.2167 171° South  Level Estimated
02:03PM 41.6120 -87.6969 140° Southeast  Level FlightAware Approximate
02:03PM 41.5444 -87.7372 140° Southeast 291 335 14,300  Level Chicago Center
02:05PM 41.4847 -87.6561 134° Southeast 302 348 15,000 780 Climbing Chicago Center
02:06PM 41.3789 -87.5750 150° Southeast 362 417 16,000 1,080 Climbing Chicago Center
02:07PM 41.1872 -87.5103 159° South  Level FlightAware Approximate
02:08PM 41.2163 -87.4515 150° Southeast  Level FlightAware Approximate
02:08PM 41.1097 -87.3619 150° Southeast 403 464 19,100  Level Indianapolis Center
02:09PM 41.0100 -87.2856 150° Southeast 414 476 20,100 900 Climbing Indianapolis Center
02:10PM 40.9875 -87.2669 148° Southeast 416 479 20,400 1,080 Climbing Chicago Center
02:12PM 40.7664 -87.0956 150° Southeast 420 483 22,800 780 Climbing Chicago Center
02:13PM 40.6683 -87.0192 149° Southeast 425 489 23,000 60 Climbing Chicago Center
02:14PM 40.4983 -86.8875 149° Southeast 439 505 23,000  Level Indianapolis Center
02:15PM 40.4569 -86.8578 151° Southeast 439 505 23,000  Level Chicago Center
02:17PM 40.2708 -86.7131 149° Southeast 433 498 23,000  Level Indianapolis Center
02:17PM 40.2308 -86.6839 151° Southeast 431 496 23,000 -240 Level Chicago Center
02:18PM 40.1275 -86.6064 150° Southeast 428 493 22,700 -600 Descending Chicago Center
02:19PM 40.0644 -86.5567 149° Southeast 431 496 22,000 -1,200 Descending Indianapolis Center
02:20PM 39.9608 -86.4786 150° Southeast 432 497 20,700 -1,320 Descending Indianapolis Center
02:21PM 39.8628 -86.4036 150° Southeast 416 479 19,400 -1,440 Descending Indianapolis Center
02:22PM 39.7861 -86.2972 133° Southeast 386 444 17,800 -1,440 Descending Indianapolis Center
02:23PM 39.7458 -86.1719 113° Southeast 376 433 16,500 -1,260 Descending Indianapolis Center
02:24PM 39.7078 -86.0531 113° Southeast 361 415 15,300 -1,260 Descending Indianapolis Center
02:25PM 39.6625 -85.9175 113° Southeast 345 397 14,000 -1,140 Descending Indianapolis Center
02:26PM 39.6236 -85.8011 113° Southeast 350 403 13,000 -1,020 Descending Indianapolis Center
02:27PM 39.5839 -85.6828 114° Southeast 357 411 12,000 -660 Descending Indianapolis Center
02:29PM 39.5061 -85.4614 114° Southeast 339 390 11,000 -300 Descending Indianapolis Center
02:31PM 39.4453 -85.3453 126° Southeast  Level FlightAware Approximate
02:31PM 39.3856 -85.2442 126° Southeast 342 394 11,000  Level Indianapolis Center
02:33PM 39.2744 -85.0436 126° Southeast 341 392 11,000 -120 Level Indianapolis Center
02:34PM 39.2206 -84.9472 126° Southeast 333 383 10,800 -480 Descending Indianapolis Center
02:35PM 39.1500 -84.8333 129° Southeast 343 395 10,100 -480 Descending Cincinnati TRACON
02:36PM 39.0833 -84.7833 150° Southeast 252 290 9,900 -1,380 Descending Cincinnati TRACON
02:37PM 39.0167 -84.7833 180° South 258 297 7,400 -1,800 Descending Cincinnati TRACON
02:39PM 38.8914 -84.7781 178° South 201 231 4,300 -1,260 Descending Indianapolis Center
02:41PM 38.9000 -84.6833 83° East 196 226 2,400 -660 Descending Cincinnati TRACON
02:42PM 38.9500 -84.6667 15° North 189 217 2,400  Level Cincinnati TRACON